Flight Track Log - Related Links

Times and Time Zones

All times are in EDT time to prevent confusion due to time zone crossing. See the UAL4401 flight status page for this flight to view local times or setup timezone preferences in your user account.

Time Position Orientation Groundspeed Altitude Reporting Facility
EDT Latitude Longitude Course Direction KTS MPH feet Rate Location/Type
Sat 08:24:01 PM 29.9572 -95.3392 97° East 175 201 800  Level Houston Center
Sat 08:24:44 PM 29.9353 -95.3081 129° Southeast 190 219 2,000 1,673 Climbing Houston Center
Sat 08:25:45 PM 29.8919 -95.2458 129° Southeast 263 303 3,700 1,295 Climbing Houston Center
Sat 08:26:12 PM 29.8789 -95.2278 130° Southeast 244 281 3,900 1,869 Climbing Houston Center
Sat 08:26:46 PM 29.8461 -95.1817 129° Southeast 260 299 5,600 2,459 Climbing Houston Center
Sat 08:27:00 PM 29.9132 -94.8250 95° East  Level FlightAware Approximate
Sat 08:27:13 PM 29.8339 -95.1617 125° Southeast 259 298 6,400  Level Houston Center
Sat 08:27:47 PM 29.8200 -95.1053 106° East 270 311 8,200 2,323 Climbing Houston Center
Sat 08:28:00 PM 29.9025 -94.6968 95° East  Level FlightAware Approximate
Sat 08:28:15 PM 29.8183 -95.0811 95° East 266 306 8,800  Level Houston Center
Sat 08:28:47 PM 29.8181 -95.0189 90° East 280 322 10,300 1,967 Climbing Houston Center
Sat 08:29:00 PM 29.8892 -94.5690 97° East  Level FlightAware Approximate
Sat 08:29:16 PM 29.8200 -94.9917 85° East 277 319 10,800  Level Houston Center
Sat 08:30:17 PM 29.8269 -94.8931 85° East 305 351 11,800 1,220 Climbing Houston Center
Sat 08:31:19 PM 29.8350 -94.7589 86° East 346 398 13,300 1,317 Climbing Houston Center
Sat 08:32:20 PM 29.8425 -94.6419 86° East 363 418 14,500 1,180 Climbing Houston Center
Sat 08:33:21 PM 29.8500 -94.5206 86° East 376 433 15,700 1,171 Climbing Houston Center
Sat 08:34:23 PM 29.8575 -94.3956 86° East 386 444 16,900 1,171 Climbing Houston Center
Sat 08:35:24 PM 29.8617 -94.2706 88° East 390 449 18,100 1,131 Climbing Houston Center
Sat 08:36:25 PM 29.8572 -94.1458 92° East 392 451 19,200 1,073 Climbing Houston Center
Sat 08:37:27 PM 29.8550 -94.0194 91° East 394 453 20,300 1,073 Climbing Houston Center
Sat 08:38:28 PM 29.8694 -93.8908 83° East 401 461 21,400 1,180 Climbing Houston Center
Sat 08:39:29 PM 29.8861 -93.7361 83° East 405 466 22,700 1,122 Climbing Houston Center
Sat 08:40:31 PM 29.8994 -93.6072 83° East 406 467 23,700 1,024 Climbing Houston Center
Sat 08:41:32 PM 29.9111 -93.4783 84° East 408 470 24,800 1,082 Climbing Houston Center
Sat 08:42:33 PM 29.9342 -93.3533 78° East 404 465 25,900 1,082 Climbing Houston Center
Sat 08:43:34 PM 29.9678 -93.2308 72° East 404 465 27,000 1,073 Climbing Houston Center
Sat 08:44:36 PM 29.9992 -93.1086 73° East 402 463 28,100 1,024 Climbing Houston Center
Sat 08:45:37 PM 30.0314 -92.9864 73° East 402 463 29,100 1,033 Climbing Houston Center
Sat 08:46:38 PM 30.0617 -92.8658 74° East 396 456 30,200 1,180 Climbing Houston Center
Sat 08:47:39 PM 30.0997 -92.7194 73° East 397 457 31,500 1,171 Climbing Houston Center
Sat 08:48:41 PM 30.1314 -92.5978 73° East 398 458 32,600 1,073 Climbing Houston Center
Sat 08:49:42 PM 30.1619 -92.4767 74° East 396 456 33,700 1,082 Climbing Houston Center
Sat 08:50:43 PM 30.1928 -92.3569 73° East 392 451 34,800 639 Climbing Houston Center
Sat 08:51:44 PM 30.2214 -92.2436 74° East 392 451 35,000 98 Climbing Houston Center
Sat 08:52:46 PM 30.2611 -92.0881 73° East 418 481 35,000  Level Houston Center
Sat 08:53:47 PM 30.2953 -91.9519 74° East 439 505 35,000  Level Houston Center
Sat 08:54:48 PM 30.3319 -91.8103 73° East 456 525 35,000  Level Houston Center
Sat 08:55:50 PM 30.3628 -91.6828 74° East 463 533 35,000  Level Houston Center
Sat 08:56:51 PM 30.3986 -91.5394 74° East 464 534 35,000 443 Level Houston Center
Sat 08:57:52 PM 30.4414 -91.3708 74° East 456 525 35,900 934 Climbing Houston Center
Sat 08:58:53 PM 30.4744 -91.2367 74° East 439 505 36,900 541 Climbing Houston Center
Sat 08:59:54 PM 30.5061 -91.1047 74° East 426 490 37,000 49 Climbing Houston Center
Sat 09:00:56 PM 30.5383 -90.9689 75° East 436 502 37,000  Level Houston Center
Sat 09:01:57 PM 30.5725 -90.8308 74° East 445 512 37,000  Level Houston Center
Sat 09:02:58 PM 30.6064 -90.6903 74° East 451 519 37,000  Level Houston Center
Sat 09:03:59 PM 30.6414 -90.5472 74° East 457 526 37,000  Level Houston Center
Sat 09:05:00 PM 30.6744 -90.4044 75° East 458 527 37,000  Level Houston Center
Sat 09:06:01 PM 30.7094 -90.2611 74° East 459 528 37,000  Level Houston Center
Sat 09:07:02 PM 30.7419 -90.1172 75° East 459 528 37,000  Level Houston Center
Sat 09:08:03 PM 30.7764 -89.9733 74° East 460 529 37,000 -49 Level Houston Center
Sat 09:09:05 PM 30.8092 -89.8289 75° East 460 529 36,900  Descending Houston Center
Sat 09:10:06 PM 30.8428 -89.6844 75° East 460 529 37,000 49 Climbing Houston Center
Sat 09:11:07 PM 30.8758 -89.5414 75° East 458 527 37,000  Level Houston Center
Sat 09:12:08 PM 30.9147 -89.3681 75° East 454 522 37,000  Level Houston Center
Sat 09:13:09 PM 30.9467 -89.2275 75° East 454 522 37,000  Level Houston Center
Sat 09:14:10 PM 30.9956 -89.0964 66° East 442 509 37,000  Level Houston Center
Sat 09:15:11 PM 31.0533 -88.9686 62° Northeast 445 512 37,000  Level Houston Center
Sat 09:16:12 PM 31.1039 -88.8564 62° Northeast 441 507 37,000  Level Houston Center
Sat 09:17:13 PM 31.1628 -88.7281 62° Northeast 447 514 37,000  Level Houston Center
Sat 09:18:14 PM 31.2275 -88.5872 62° Northeast 445 512 37,000  Level Houston Center
Sat 09:19:15 PM 31.2928 -88.4433 62° Northeast 450 518 37,000  Level Houston Center
Sat 09:20:16 PM 31.3522 -88.3117 62° Northeast 452 520 37,000  Level Houston Center
Sat 09:21:17 PM 31.4119 -88.1792 62° Northeast 457 526 37,000  Level Houston Center
Sat 09:22:18 PM 31.4706 -88.0472 62° Northeast 455 524 37,000  Level Houston Center
Sat 09:23:19 PM 31.5289 -87.9147 63° Northeast 456 525 37,000  Level Houston Center
Sat 09:24:20 PM 31.5867 -87.7825 63° Northeast 455 524 37,000  Level Houston Center
Sat 09:25:21 PM 31.6528 -87.6567 58° Northeast 453 521 37,000  Level Houston Center
Sat 09:26:22 PM 31.7283 -87.5364 54° Northeast 457 526 37,000  Level Houston Center
Sat 09:27:23 PM 31.8047 -87.4161 53° Northeast 458 527 37,000  Level Houston Center
Sat 09:28:23 PM 31.8814 -87.2944 53° Northeast 463 533 37,000  Level Houston Center
Sat 09:29:24 PM 31.9567 -87.1731 54° Northeast 461 531 37,000  Level Houston Center
Sat 09:30:25 PM 32.0331 -87.0511 54° Northeast 463 533 37,000  Level Houston Center
Sat 09:31:26 PM 32.1089 -86.9289 54° Northeast 463 533 37,000  Level Houston Center
Sat 09:32:32 PM 32.1939 -86.7950 53° Northeast 460 529 37,000  Level Atlanta Center
Sat 09:33:32 PM 32.2822 -86.6628 52° Northeast 465 535 37,000  Level Atlanta Center
Sat 09:34:32 PM 32.3600 -86.5397 53° Northeast 465 535 37,000  Level Atlanta Center
Sat 09:35:32 PM 32.4333 -86.4186 54° Northeast 470 541 37,000  Level Atlanta Center
Sat 09:36:32 PM 32.5025 -86.2875 58° Northeast 465 535 37,000  Level Atlanta Center
Sat 09:37:32 PM 32.5861 -86.1614 52° Northeast 470 541 37,000  Level Atlanta Center
Sat 09:38:32 PM 32.6614 -86.0325 55° Northeast 470 541 37,000  Level Atlanta Center
Sat 09:39:32 PM 32.7364 -85.9083 54° Northeast 470 541 37,000  Level Atlanta Center
Sat 09:40:32 PM 32.8133 -85.7814 54° Northeast 470 541 37,000  Level Atlanta Center
Sat 09:41:32 PM 32.8883 -85.6542 55° Northeast 470 541 37,000  Level Atlanta Center
Sat 09:42:32 PM 32.9669 -85.5269 54° Northeast 470 541 37,000  Level Atlanta Center
Sat 09:43:32 PM 33.0436 -85.3969 55° Northeast 470 541 37,000  Level Atlanta Center
Sat 09:44:32 PM 33.1139 -85.2864 53° Northeast 470 541 37,000  Level Atlanta Center
Sat 09:45:32 PM 33.1903 -85.1558 55° Northeast 475 547 37,000  Level Atlanta Center
Sat 09:46:32 PM 33.2642 -85.0300 55° Northeast 475 547 37,000  Level Atlanta Center
Sat 09:47:32 PM 33.3403 -84.8992 55° Northeast 475 547 37,000  Level Atlanta Center
Sat 09:48:32 PM 33.4186 -84.7656 55° Northeast 475 547 37,000  Level Atlanta Center
Sat 09:49:32 PM 33.4986 -84.6242 56° Northeast 475 547 37,000  Level Atlanta Center
Sat 09:50:32 PM 33.5764 -84.4900 55° Northeast 480 552 37,000  Level Atlanta Center
Sat 09:51:32 PM 33.6478 -84.3756 53° Northeast 480 552 37,000  Level Atlanta Center
Sat 09:52:32 PM 33.7231 -84.2411 56° Northeast 475 547 37,000  Level Atlanta Center
Sat 09:53:32 PM 33.8047 -84.0939 56° Northeast 481 554 37,000  Level Atlanta Center
Sat 09:54:32 PM 33.8797 -83.9664 55° Northeast 481 554 37,000  Level Atlanta Center
Sat 09:55:32 PM 33.9528 -83.8358 56° Northeast 476 548 37,000  Level Atlanta Center
Sat 09:56:32 PM 34.0256 -83.7081 55° Northeast 468 539 37,000  Level Atlanta Center
Sat 09:57:32 PM 34.1003 -83.5797 55° Northeast 468 539 37,000  Level Atlanta Center
Sat 09:58:32 PM 34.1706 -83.4539 56° Northeast 463 533 37,000  Level Atlanta Center
Sat 09:59:32 PM 34.2431 -83.3225 56° Northeast 463 533 37,000  Level Atlanta Center
Sat 10:00:32 PM 34.3153 -83.1989 55° Northeast 458 527 37,000  Level Atlanta Center
Sat 10:01:32 PM 34.3853 -83.0647 58° Northeast 463 533 37,000  Level Atlanta Center
Sat 10:02:32 PM 34.4592 -82.9378 55° Northeast 457 526 37,000  Level Atlanta Center
Sat 10:03:32 PM 34.5289 -82.8108 56° Northeast 457 526 37,000  Level Atlanta Center
Sat 10:04:32 PM 34.6028 -82.6811 55° Northeast 462 532 37,000  Level Atlanta Center
Sat 10:05:32 PM 34.6764 -82.5561 54° Northeast 462 532 37,000  Level Atlanta Center
Sat 10:06:32 PM 34.7478 -82.4208 57° Northeast 462 532 37,000  Level Atlanta Center
Sat 10:07:32 PM 34.8192 -82.2931 56° Northeast 462 532 37,000  Level Atlanta Center
Sat 10:08:32 PM 34.8903 -82.1650 56° Northeast 462 532 37,000  Level Atlanta Center
Sat 10:09:32 PM 34.9553 -82.0469 56° Northeast 462 532 37,000  Level Atlanta Center
Sat 10:10:32 PM 35.0239 -81.9183 57° Northeast 462 532 37,000  Level Atlanta Center
Sat 10:11:32 PM 35.0947 -81.7844 57° Northeast 462 532 37,000  Level Atlanta Center
Sat 10:12:32 PM 35.1650 -81.6531 57° Northeast 462 532 37,000  Level Atlanta Center
Sat 10:13:32 PM 35.2436 -81.5083 56° Northeast 462 532 37,000  Level Atlanta Center
Sat 10:14:32 PM 35.3117 -81.3764 58° Northeast 462 532 37,000  Level Atlanta Center
Sat 10:15:32 PM 35.3817 -81.2419 57° Northeast 462 532 37,000  Level Atlanta Center
Sat 10:16:32 PM 35.4517 -81.1069 57° Northeast 462 532 37,000  Level Atlanta Center
Sat 10:17:32 PM 35.5175 -80.9819 57° Northeast 469 540 37,000  Level Atlanta Center
Sat 10:18:32 PM 35.5872 -80.8544 56° Northeast 463 533 37,000  Level Atlanta Center
Sat 10:19:32 PM 35.6647 -80.7081 57° Northeast 458 527 37,000  Level Atlanta Center
Sat 10:20:32 PM 35.7342 -80.5775 57° Northeast 458 527 37,000  Level Atlanta Center
Sat 10:21:32 PM 35.7992 -80.4467 58° Northeast 458 527 37,000  Level Atlanta Center
Sat 10:22:32 PM 35.8703 -80.3153 56° Northeast 453 521 37,000  Level Atlanta Center
Sat 10:23:32 PM 35.9372 -80.1814 58° Northeast 453 521 37,000  Level Atlanta Center
Sat 10:25:49 PM 36.0867 -79.9050 56° Northeast 445 512 37,000  Level Washington Center
Sat 10:26:48 PM 36.1603 -79.7753 55° Northeast 451 519 37,000  Level Washington Center
Sat 10:27:48 PM 36.2400 -79.6353 55° Northeast 449 517 37,000  Level Washington Center
Sat 10:28:48 PM 36.3064 -79.5200 54° Northeast 449 517 37,000 -400 Level Washington Center
Sat 10:29:48 PM 36.3794 -79.3947 54° Northeast 449 517 36,200 -1,736 Descending Washington Center
Sat 10:30:49 PM 36.4483 -79.2611 57° Northeast 449 517 33,500 -2,600 Descending Washington Center
Sat 10:31:48 PM 36.5211 -79.1278 56° Northeast 454 522 31,000 -2,600 Descending Washington Center
Sat 10:32:49 PM 36.5981 -78.9967 54° Northeast 454 522 28,300 -2,754 Descending Washington Center
Sat 10:33:50 PM 36.6814 -78.8450 56° Northeast 475 547 25,400 -1,664 Descending Washington Center
Sat 10:34:48 PM 36.7561 -78.7081 56° Northeast 476 548 25,000 -203 Descending Washington Center
Sat 10:35:48 PM 36.8283 -78.5786 55° Northeast 466 536 25,000  Level Washington Center
Sat 10:36:48 PM 36.9025 -78.4464 55° Northeast 466 536 25,000 -585 Level Washington Center
Sat 10:37:51 PM 36.9983 -78.3614 35° Northeast 451 519 23,800 -1,328 Descending Washington Center
Sat 10:38:50 PM 37.1044 -78.2769 32° Northeast 451 519 22,300 -908 Descending Washington Center
Sat 10:39:50 PM 37.2211 -78.1922 30° Northeast 444 511 22,000 -150 Descending Washington Center
Sat 10:40:50 PM 37.3144 -78.1222 31° Northeast 436 502 22,000  Level Washington Center
Sat 10:41:48 PM 37.4183 -78.0394 32° Northeast 436 502 22,000  Level Washington Center
Sat 10:42:48 PM 37.5242 -77.9589 31° Northeast 436 502 22,000 1,475 Level Washington Center
Sat 10:43:50 PM 37.6303 -77.8731 33° Northeast 436 502 25,000 -1,300 Climbing Washington Center
Sat 10:44:48 PM 37.7339 -77.7975 30° Northeast 436 502 19,400 -3,800 Descending Washington Center
Sat 10:45:50 PM 37.8311 -77.7189 33° Northeast 423 487 17,400 -2,016 Descending Washington Center
Sat 10:46:50 PM 37.9283 -77.6453 31° Northeast 412 474 15,300 -2,150 Descending Washington Center
Sat 10:47:50 PM 38.0192 -77.5711 33° Northeast 404 465 13,100 -2,083 Descending Washington Center
Sat 10:48:51 PM 38.1183 -77.5000 29° Northeast 385 443 11,100 -1,576 Descending Washington Center
Sat 10:49:48 PM 38.2028 -77.4361 31° Northeast 364 419 10,000 -667 Descending Washington Center
Sat 10:50:48 PM 38.2744 -77.3928 25° Northeast 324 373 9,800 -893 Descending Washington Center
Sat 10:51:49 PM 38.3439 -77.3547 23° Northeast 286 329 8,200 -1,672 Descending Washington Center
Sat 10:52:50 PM 38.4208 -77.3619 356° North 261 300 6,400 -1,613 Descending Washington Center
Sat 10:53:48 PM 38.4958 -77.3636 359° North 261 300 5,000 -1,068 Descending Washington Center
Sat 10:54:48 PM 38.5708 -77.3656 359° North 261 300 4,300 -1,056 Descending Washington Center
Sat 10:55:36 PM 38.6333 -77.3667 359° North 269 310 3,100 -722 Descending Potomac TRACON
Sat 10:56:36 PM 38.7000 -77.3667 360° North 270 311 3,000 -50 Descending Potomac TRACON
Sat 10:57:36 PM 38.7833 -77.3500 North 267 307 3,000  Level Potomac TRACON
Sat 10:58:36 PM 38.8500 -77.3500 360° North 262 302 3,000  Level Potomac TRACON
Sat 10:59:36 PM 38.9167 -77.3500 360° North 260 299 3,000 -100 Level Potomac TRACON
Sat 11:00:36 PM 39.0000 -77.3500 360° North 252 290 2,800 -650 Descending Potomac TRACON
Sat 11:01:36 PM 39.0500 -77.3500 360° North 239 275 1,700 -1,100 Descending Potomac TRACON

Login

Don't have an account? Register now (free) for customized features, flight alerts, and more!